Gwangju Airport
RKJJ : now visible

Airfield :











YOU CAN JOIN US ON...

 
LOGIN :

Register | Disclaimer

   EN    FR    IT 

 









Legend :    VFR   Marginal VFR   IFR   Intensive IFR   Very Intensive IFR
Visi :
Ceiling :
>= 8 km
>= 3000ft
5 to 8 km
1000 to 3000 ft
1500m to 5 km
500 to 1000 ft
800 to 1500m
200 to 500 ft
< 800m
< 200 ft
Symbols :   Thunderstorms  Fog  Heavy snow  Heavy precipitations  Wind > 20 kt






- Airport Elevation : 39 ft
- IATA code : KWJ


RKJJ - Gwangju

CURRENT METAR :
  • 310439Z 31SPECI

EXPIRED METARs :
  • 310400Z 19008KT 9999 BKN030 OVC100 23/18 Q1011 RMK CIG030 SLP115 8/520 9/620
  • 310340Z 17005KT 9999 BKN030 BKN100 23/18 A2988 RMK CIG030
  • 310330Z 31SPECI
  • 310317Z 31SPECI
  • 310200Z 13008KT 9999 BKN030 BKN100 23/17 Q1012 RMK CIG030 SLP126 8/520 9/610 WR24

TAF TAF RKJJ
Valid from the 31 at 00:00 until the 01 at 06:00 UTC


302300Z 3100/0106 18006KT 9999 BKN030 TX25/3106Z TN16/3121Z
BECMG 3117/3118 18003KT 4800 BR SCT015 BKN030
BECMG 0100/0101 30006KT 9999 NSW SCT030
RKRR FIR / Asia



MET'MAP, your aeronautical weather chart ! - Copyright ORBIFLY December 2007 - Disclaimer

ORBIFLY MET'MAP TEAM :

Programming & Development : Alexandra Zaïnal
Concept & original design : Baudouin d'Aumeries
Assistance for programming : Marc-Olivier Méhu
Technical & hardware support : Manuel Goepfert

Contact : metmap@orbifly.com




SOURCES & CREDITS :

   NOAA       Earth
Advisory